createdAt,value
2018-03-26T00:01:33.483Z,45.30
2018-03-26T00:03:59.940Z,47.63
2018-03-26T00:06:26.320Z,48.97
2018-03-26T00:08:52.521Z,50.70
2018-03-26T00:11:19.538Z,48.57
2018-03-26T00:13:45.729Z,46.87
2018-03-26T00:16:12.026Z,50.80
2018-03-26T00:18:39.001Z,48.07
2018-03-26T00:21:05.359Z,52.00
2018-03-26T00:23:31.706Z,44.70
2018-03-26T00:25:59.521Z,47.20
2018-03-26T00:28:25.745Z,48.87
2018-03-26T00:30:52.051Z,49.43
2018-03-26T00:33:19.021Z,45.60
2018-03-26T00:35:45.263Z,51.70
2018-03-26T00:38:11.570Z,47.67
2018-03-26T00:40:37.784Z,53.00
2018-03-26T00:43:04.126Z,48.57
2018-03-26T00:45:30.309Z,50.13
2018-03-26T00:47:57.278Z,52.03
2018-03-26T00:50:24.179Z,48.90
2018-03-26T00:52:50.395Z,48.93
2018-03-26T00:55:16.659Z,48.03
2018-03-26T00:57:43.696Z,52.57
2018-03-26T01:00:10.043Z,48.93
2018-03-26T01:02:37.056Z,58.13
2018-03-26T01:05:03.334Z,53.73
2018-03-26T01:07:29.707Z,53.20
2018-03-26T01:09:55.950Z,50.30
2018-03-26T01:12:29.957Z,45.87
2018-03-26T01:14:56.252Z,49.57
2018-03-26T01:17:22.478Z,54.20
2018-03-26T01:19:48.657Z,56.07
2018-03-26T01:22:22.696Z,52.03
2018-03-26T01:24:48.873Z,54.63
2018-03-26T01:27:15.176Z,47.70
2018-03-26T01:29:41.527Z,49.37
2018-03-26T01:32:07.799Z,54.67
2018-03-26T01:34:34.075Z,50.57
2018-03-26T01:37:00.321Z,54.87
2018-03-26T01:39:27.272Z,52.60
2018-03-26T01:41:54.155Z,48.10
2018-03-26T01:44:20.366Z,55.10
2018-03-26T01:46:46.531Z,51.60
2018-03-26T01:49:12.747Z,53.40
2018-03-26T01:51:38.926Z,51.43
2018-03-26T01:54:05.935Z,58.20
2018-03-26T01:56:32.154Z,55.63
2018-03-26T01:58:58.353Z,57.70
2018-03-26T02:01:24.654Z,51.77
2018-03-26T02:03:51.769Z,46.80
2018-03-26T02:06:17.978Z,49.20
2018-03-26T02:08:44.332Z,55.23
2018-03-26T02:11:10.562Z,53.43
2018-03-26T02:13:36.778Z,48.83
2018-03-26T02:16:02.974Z,49.37
2018-03-26T02:18:29.266Z,51.20
2018-03-26T02:20:56.182Z,53.03
2018-03-26T02:23:23.220Z,51.33
2018-03-26T02:25:49.397Z,50.97
2018-03-26T02:28:17.998Z,52.03
2018-03-26T02:30:44.259Z,47.00
2018-03-26T02:33:10.510Z,50.17
2018-03-26T02:35:37.468Z,50.63
2018-03-26T02:38:04.452Z,52.43
2018-03-26T02:40:30.639Z,54.30
2018-03-26T02:42:57.572Z,51.97
2018-03-26T02:45:24.489Z,51.50
2018-03-26T02:47:50.769Z,55.17
2018-03-26T02:50:16.975Z,47.47
2018-03-26T02:52:43.895Z,56.73
2018-03-26T02:55:10.089Z,58.73
2018-03-26T02:57:36.252Z,50.63
2018-03-26T03:00:02.449Z,48.60
2018-03-26T03:02:28.618Z,52.70
2018-03-26T03:04:55.577Z,54.70
2018-03-26T03:07:21.907Z,55.87
2018-03-26T03:09:48.139Z,51.53
2018-03-26T03:12:14.375Z,47.73
2018-03-26T03:14:40.663Z,55.00
2018-03-26T03:17:06.920Z,53.83
2018-03-26T03:19:33.216Z,46.87
2018-03-26T03:21:59.440Z,53.03
2018-03-26T03:24:25.711Z,47.63
2018-03-26T03:26:52.012Z,52.20
2018-03-26T03:29:19.003Z,48.70
2018-03-26T03:31:45.250Z,53.50
2018-03-26T03:34:11.960Z,51.07
2018-03-26T03:36:38.201Z,53.23
2018-03-26T03:39:04.548Z,51.43
2018-03-26T03:41:31.082Z,53.77
2018-03-26T03:43:57.806Z,54.43
2018-03-26T03:46:24.087Z,53.57
2018-03-26T03:48:51.158Z,50.60
2018-03-26T03:51:17.428Z,53.63
2018-03-26T03:53:44.419Z,55.27
2018-03-26T03:56:10.755Z,48.43
2018-03-26T03:58:37.025Z,54.40
2018-03-26T04:01:03.356Z,53.00
2018-03-26T04:03:29.680Z,53.93
2018-03-26T04:05:55.882Z,56.60
2018-03-26T04:08:22.251Z,52.33
2018-03-26T04:10:48.436Z,53.60
2018-03-26T04:13:14.670Z,58.03
2018-03-26T04:15:40.852Z,50.97
2018-03-26T04:18:07.862Z,46.33
2018-03-26T04:20:49.022Z,61.40
2018-03-26T04:23:15.200Z,60.83
2018-03-26T04:25:42.249Z,55.97
2018-03-26T04:28:09.256Z,52.57
2018-03-26T04:30:35.436Z,53.57
2018-03-26T04:33:01.652Z,49.70
2018-03-26T04:35:28.586Z,51.70
2018-03-26T04:37:55.676Z,55.80
2018-03-26T04:40:21.968Z,55.00
2018-03-26T04:42:48.946Z,56.80
2018-03-26T04:45:15.274Z,53.33
2018-03-26T04:47:41.504Z,51.73
2018-03-26T04:50:07.859Z,56.30
2018-03-26T04:52:34.056Z,52.27
2018-03-26T04:55:00.378Z,53.70
2018-03-26T04:57:26.602Z,59.67
2018-03-26T04:59:52.817Z,56.83
2018-03-26T05:02:19.012Z,56.30
2018-03-26T05:04:45.361Z,54.07
2018-03-26T05:07:11.602Z,48.93
2018-03-26T05:09:37.776Z,50.73
2018-03-26T05:12:04.045Z,54.63
2018-03-26T05:14:31.133Z,50.17
2018-03-26T05:16:57.358Z,47.10
2018-03-26T05:19:23.656Z,50.37
2018-03-26T05:21:49.883Z,48.43
2018-03-26T05:24:16.111Z,47.37
2018-03-26T05:26:42.298Z,52.57
2018-03-26T05:29:08.577Z,47.40
2018-03-26T05:31:34.894Z,46.70
2018-03-26T05:34:01.226Z,51.70
2018-03-26T05:36:27.417Z,46.93
2018-03-26T05:38:53.622Z,41.53
2018-03-26T05:41:19.812Z,49.23
2018-03-26T05:43:46.120Z,53.07
2018-03-26T05:46:12.505Z,55.37
2018-03-26T05:48:38.756Z,56.43
2018-03-26T05:51:05.742Z,50.23
2018-03-26T05:53:32.060Z,51.00
2018-03-26T05:55:58.373Z,48.27
2018-03-26T05:58:25.279Z,52.77
2018-03-26T06:00:51.520Z,47.37
2018-03-26T06:03:17.799Z,45.40
2018-03-26T06:05:44.110Z,47.60
2018-03-26T06:08:10.287Z,44.33
2018-03-26T06:10:36.620Z,49.10
2018-03-26T06:13:02.816Z,44.57
2018-03-26T06:15:29.438Z,46.23
2018-03-26T06:17:56.423Z,43.00
2018-03-26T06:20:24.134Z,42.80
2018-03-26T06:22:50.406Z,44.70
2018-03-26T06:25:16.742Z,45.93
2018-03-26T06:27:42.954Z,51.33
2018-03-26T06:30:09.138Z,48.37
2018-03-26T06:32:35.492Z,47.57
2018-03-26T06:35:01.761Z,50.40
2018-03-26T06:37:30.165Z,50.63
2018-03-26T06:39:57.087Z,46.03
2018-03-26T06:42:25.011Z,43.13
2018-03-26T06:44:51.152Z,45.83
2018-03-26T06:47:17.409Z,48.30
2018-03-26T06:49:43.796Z,51.90
2018-03-26T06:52:10.030Z,47.17
2018-03-26T06:54:36.256Z,51.33
2018-03-26T06:57:02.570Z,49.87
2018-03-26T06:59:28.981Z,40.20
2018-03-26T07:01:55.926Z,45.37
2018-03-26T07:04:22.525Z,39.37
2018-03-26T07:06:48.863Z,49.07
2018-03-26T07:09:15.149Z,46.53
2018-03-26T07:11:41.384Z,47.97
2018-03-26T07:14:07.650Z,40.17
2018-03-26T07:16:34.359Z,40.70
2018-03-26T07:19:00.659Z,46.97
2018-03-26T07:21:26.902Z,50.03
2018-03-26T07:23:53.211Z,52.50
2018-03-26T07:26:19.402Z,52.50
2018-03-26T07:28:46.486Z,53.67
2018-03-26T07:31:12.702Z,51.17
2018-03-26T07:33:39.125Z,56.47
2018-03-26T07:36:05.332Z,53.40
2018-03-26T07:38:31.605Z,59.03
2018-03-26T07:40:57.923Z,53.40
2018-03-26T07:43:24.265Z,70.97
2018-03-26T07:45:50.627Z,70.30
2018-03-26T07:48:16.950Z,62.50
2018-03-26T07:50:43.301Z,59.63
2018-03-26T07:53:09.667Z,59.43
2018-03-26T07:55:36.359Z,53.00
2018-03-26T07:58:18.423Z,50.50
2018-03-26T08:00:44.884Z,51.53
2018-03-26T08:03:11.810Z,47.63
2018-03-26T08:05:38.154Z,51.13
2018-03-26T08:08:04.501Z,48.10
2018-03-26T08:10:31.527Z,47.97
2018-03-26T08:12:57.845Z,54.20
2018-03-26T08:15:24.077Z,44.97
2018-03-26T08:17:50.460Z,46.67
2018-03-26T08:20:17.386Z,46.30
2018-03-26T08:22:44.357Z,48.43
2018-03-26T08:25:10.531Z,44.90
2018-03-26T08:27:36.854Z,43.77
2018-03-26T08:30:03.091Z,51.03
2018-03-26T08:32:29.427Z,46.33
2018-03-26T08:34:55.740Z,40.83
2018-03-26T08:37:21.988Z,47.93
2018-03-26T08:39:48.313Z,49.57
2018-03-26T08:42:16.205Z,43.83
2018-03-26T08:44:43.042Z,46.93
2018-03-26T08:47:10.150Z,50.97
2018-03-26T08:49:36.306Z,46.67
2018-03-26T08:52:03.399Z,46.70
2018-03-26T08:54:29.623Z,52.60
2018-03-26T08:56:55.789Z,49.33
2018-03-26T08:59:22.775Z,50.83
2018-03-26T09:01:48.991Z,54.43
2018-03-26T09:04:15.227Z,46.83
2018-03-26T09:06:41.402Z,49.83
2018-03-26T09:09:07.969Z,53.53
2018-03-26T09:11:35.030Z,48.13
2018-03-26T09:14:01.973Z,45.13
2018-03-26T09:16:28.184Z,48.50
2018-03-26T09:18:55.326Z,41.37
2018-03-26T09:21:22.310Z,47.37
2018-03-26T09:23:48.602Z,48.17
2018-03-26T09:26:15.576Z,47.53
2018-03-26T09:28:41.950Z,50.37
2018-03-26T09:31:08.229Z,51.77
2018-03-26T09:33:34.617Z,46.90
2018-03-26T09:36:00.862Z,47.33
2018-03-26T09:38:27.844Z,48.37
2018-03-26T09:40:54.162Z,46.80
2018-03-26T09:43:20.394Z,47.30
2018-03-26T09:45:46.642Z,47.00
2018-03-26T09:48:12.767Z,52.83
2018-03-26T09:50:39.038Z,55.80
2018-03-26T09:53:05.254Z,50.03
2018-03-26T09:55:32.222Z,51.50
2018-03-26T09:57:59.194Z,55.67
2018-03-26T10:00:31.589Z,47.43
2018-03-26T10:02:57.768Z,53.50
2018-03-26T10:05:24.053Z,56.23
2018-03-26T10:07:50.534Z,48.60
2018-03-26T10:10:17.472Z,46.77
2018-03-26T10:12:44.524Z,48.40
2018-03-26T10:15:11.518Z,60.37
2018-03-26T10:17:37.858Z,51.87
2018-03-26T10:20:04.072Z,47.70
2018-03-26T10:22:30.449Z,54.93
2018-03-26T10:24:57.397Z,52.27
2018-03-26T10:27:23.654Z,56.67
2018-03-26T10:29:49.915Z,55.17
2018-03-26T10:32:16.955Z,50.20
2018-03-26T10:34:43.140Z,49.00
2018-03-26T10:37:09.435Z,61.23
2018-03-26T10:39:35.742Z,54.00
2018-03-26T10:42:02.062Z,58.23
2018-03-26T10:44:28.341Z,58.47
2018-03-26T10:46:55.336Z,56.43
2018-03-26T10:49:21.605Z,57.60
2018-03-26T10:51:48.728Z,58.80
2018-03-26T10:54:15.043Z,54.67
2018-03-26T10:56:41.284Z,57.23
2018-03-26T10:59:08.355Z,60.67
2018-03-26T11:01:35.420Z,57.07
2018-03-26T11:04:01.817Z,62.10
2018-03-26T11:06:28.753Z,59.33
2018-03-26T11:08:55.732Z,62.50
2018-03-26T11:11:21.942Z,60.77
2018-03-26T11:13:48.977Z,69.63
2018-03-26T11:16:16.869Z,61.90
2018-03-26T11:18:59.041Z,64.30
2018-03-26T11:21:25.386Z,64.33
2018-03-26T11:23:52.463Z,60.17
2018-03-26T11:26:18.777Z,68.30
2018-03-26T11:28:45.703Z,63.70
2018-03-26T11:31:12.624Z,59.50
2018-03-26T11:33:38.772Z,56.90
2018-03-26T11:36:05.775Z,57.77
2018-03-26T11:38:31.992Z,61.00
2018-03-26T11:40:58.212Z,61.67
2018-03-26T11:43:24.364Z,61.63
2018-03-26T11:45:50.554Z,62.87
2018-03-26T11:48:16.801Z,59.27
2018-03-26T11:50:42.929Z,59.57
2018-03-26T11:53:09.125Z,59.07
2018-03-26T11:55:36.164Z,63.73
2018-03-26T11:58:03.078Z,58.30
2018-03-26T12:00:29.301Z,59.53
2018-03-26T12:02:55.630Z,58.57
2018-03-26T12:05:22.635Z,57.60
2018-03-26T12:07:48.890Z,57.73
2018-03-26T12:10:15.104Z,63.17
2018-03-26T12:12:41.708Z,60.13
2018-03-26T12:15:08.391Z,59.00
2018-03-26T12:17:34.619Z,62.57
2018-03-26T12:20:13.172Z,57.47
2018-03-26T12:22:40.217Z,61.83
2018-03-26T12:25:12.045Z,56.07
2018-03-26T12:27:50.552Z,56.47
2018-03-26T12:30:17.663Z,55.47
2018-03-26T12:32:43.829Z,60.43
2018-03-26T12:35:22.252Z,61.53
2018-03-26T12:37:48.463Z,56.43
2018-03-26T12:40:26.915Z,55.93
2018-03-26T12:42:54.530Z,57.63
2018-03-26T12:45:32.870Z,56.20
2018-03-26T12:47:59.058Z,56.77
2018-03-26T12:50:37.708Z,56.50
2018-03-26T12:53:03.905Z,57.63
2018-03-26T12:55:30.061Z,61.07
2018-03-26T12:58:09.999Z,60.60
2018-03-26T13:00:36.230Z,62.27
2018-03-26T13:03:02.507Z,55.03
2018-03-26T13:05:28.678Z,53.77
2018-03-26T13:07:56.320Z,59.90
2018-03-26T13:10:22.567Z,62.20
2018-03-26T13:12:48.714Z,59.50
2018-03-26T13:15:15.821Z,56.03
2018-03-26T13:17:42.307Z,60.43
2018-03-26T13:20:09.275Z,53.90
2018-03-26T13:22:35.734Z,58.47
2018-03-26T13:25:02.190Z,58.97
2018-03-26T13:27:28.325Z,55.77
2018-03-26T13:29:55.328Z,58.93
2018-03-26T13:32:21.503Z,58.83
2018-03-26T13:34:48.373Z,58.03
2018-03-26T13:37:14.542Z,62.77
2018-03-26T13:39:41.693Z,61.60
2018-03-26T13:42:08.044Z,61.33
2018-03-26T13:44:34.882Z,55.93
2018-03-26T13:47:01.219Z,55.33
2018-03-26T13:49:28.469Z,54.23
2018-03-26T13:51:55.345Z,50.07
2018-03-26T13:54:21.633Z,50.47
2018-03-26T13:56:48.768Z,50.77
2018-03-26T13:59:14.950Z,44.07
2018-03-26T14:01:41.099Z,42.73
2018-03-26T14:04:07.262Z,51.03
2018-03-26T14:06:34.836Z,51.17
2018-03-26T14:09:13.287Z,56.43
2018-03-26T14:11:51.621Z,50.27
2018-03-26T14:14:31.250Z,48.67
2018-03-26T14:17:09.714Z,46.27
2018-03-26T14:19:36.015Z,45.20
2018-03-26T14:22:02.222Z,47.37
2018-03-26T14:24:28.432Z,41.90
2018-03-26T14:26:54.593Z,48.97
2018-03-26T14:29:20.746Z,40.10
2018-03-26T14:31:47.594Z,34.60
2018-03-26T14:34:13.815Z,43.57
2018-03-26T14:36:40.108Z,46.07
2018-03-26T14:39:07.025Z,35.83
2018-03-26T14:41:33.164Z,39.20
2018-03-26T14:44:00.186Z,35.43
2018-03-26T14:46:26.466Z,37.30
2018-03-26T14:48:52.736Z,38.30
2018-03-26T14:51:18.906Z,44.33
2018-03-26T14:53:46.673Z,35.33
2018-03-26T14:56:12.987Z,33.93
2018-03-26T14:58:39.169Z,34.97
2018-03-26T15:01:05.293Z,37.83
2018-03-26T15:03:31.466Z,30.20
2018-03-26T15:05:58.503Z,39.47
2018-03-26T15:08:39.638Z,37.97
2018-03-26T15:11:05.970Z,36.07
2018-03-26T15:13:32.255Z,35.40
2018-03-26T15:15:58.377Z,41.27
2018-03-26T15:18:24.630Z,33.23
2018-03-26T15:20:51.766Z,38.67
2018-03-26T15:23:18.086Z,31.97
2018-03-26T15:25:51.182Z,34.90
2018-03-26T15:28:18.105Z,34.07
2018-03-26T15:30:44.275Z,41.27
2018-03-26T15:33:10.470Z,39.60
2018-03-26T15:35:36.875Z,38.10
2018-03-26T15:38:03.078Z,40.40
2018-03-26T15:40:29.296Z,44.20
2018-03-26T15:42:55.459Z,43.73
2018-03-26T15:45:21.722Z,38.00
2018-03-26T15:47:48.754Z,42.73
2018-03-26T15:50:14.974Z,49.33
2018-03-26T15:52:42.725Z,49.20
2018-03-26T15:55:08.955Z,47.87
2018-03-26T15:57:35.141Z,51.47
2018-03-26T16:00:01.334Z,53.07
2018-03-26T16:02:34.300Z,44.07
2018-03-26T16:05:00.460Z,42.20
2018-03-26T16:07:26.702Z,49.30
2018-03-26T16:09:52.879Z,48.40
2018-03-26T16:12:19.060Z,44.37
2018-03-26T16:14:45.219Z,45.00
2018-03-26T16:17:11.514Z,42.07
2018-03-26T16:19:37.745Z,45.20
2018-03-26T16:22:03.949Z,44.67
2018-03-26T16:24:30.844Z,41.27
2018-03-26T16:26:57.039Z,41.07
2018-03-26T16:29:23.235Z,38.90
2018-03-26T16:31:50.143Z,43.27
2018-03-26T16:34:16.338Z,44.70
2018-03-26T16:36:42.979Z,44.67
2018-03-26T16:39:09.202Z,38.20
2018-03-26T16:41:45.648Z,47.23
2018-03-26T16:44:11.836Z,43.00
2018-03-26T16:46:38.091Z,38.90
2018-03-26T16:49:05.103Z,42.60
2018-03-26T16:51:32.058Z,40.27
2018-03-26T16:53:58.503Z,44.50
2018-03-26T16:56:25.474Z,39.77
2018-03-26T16:58:51.758Z,43.87
2018-03-26T17:01:18.804Z,34.70
2018-03-26T17:03:45.757Z,50.90
2018-03-26T17:06:12.774Z,46.10
2018-03-26T17:08:39.116Z,45.47
2018-03-26T17:11:06.824Z,39.60
2018-03-26T17:13:33.002Z,43.87
2018-03-26T17:15:59.215Z,38.63
2018-03-26T17:18:25.378Z,39.70
2018-03-26T17:20:52.282Z,43.47
2018-03-26T17:23:18.429Z,39.17
2018-03-26T17:25:46.037Z,39.47
2018-03-26T17:28:12.209Z,44.33
2018-03-26T17:30:39.138Z,61.50
2018-03-26T17:33:05.406Z,51.57
2018-03-26T17:35:32.384Z,55.30
2018-03-26T17:37:58.656Z,47.13
2018-03-26T17:40:26.455Z,44.90
2018-03-26T17:42:52.756Z,41.10
2018-03-26T17:45:18.936Z,39.30
2018-03-26T17:47:45.108Z,38.50
2018-03-26T17:50:12.173Z,34.90
2018-03-26T17:52:39.179Z,36.93
2018-03-26T17:55:05.519Z,37.27
2018-03-26T17:57:31.786Z,38.10
2018-03-26T17:59:57.974Z,36.90
2018-03-26T18:02:24.189Z,37.93
2018-03-26T18:04:50.372Z,39.07
2018-03-26T18:07:16.637Z,39.07
2018-03-26T18:09:42.809Z,42.60
2018-03-26T18:12:09.752Z,36.73
2018-03-26T18:14:36.902Z,31.67
2018-03-26T18:17:03.870Z,39.40
2018-03-26T18:19:30.190Z,41.63
2018-03-26T18:21:56.387Z,38.33
2018-03-26T18:24:22.610Z,76.27
2018-03-26T18:26:49.472Z,100.63
2018-03-26T18:29:15.850Z,103.07
2018-03-26T18:31:42.048Z,102.77
2018-03-26T18:34:08.476Z,90.90
2018-03-26T18:36:34.950Z,108.37
2018-03-26T18:39:02.744Z,73.03
2018-03-26T18:41:30.715Z,96.87
2018-03-26T18:43:58.236Z,105.17
2018-03-26T18:46:24.461Z,90.77
2018-03-26T18:48:50.730Z,68.87
2018-03-26T18:51:17.801Z,50.40
2018-03-26T18:53:44.909Z,59.50
2018-03-26T18:56:11.070Z,77.70
2018-03-26T18:58:37.335Z,77.73
2018-03-26T19:01:03.606Z,68.70
2018-03-26T19:03:29.770Z,68.80
2018-03-26T19:05:56.076Z,67.33
2018-03-26T19:08:23.005Z,64.90
2018-03-26T19:10:49.925Z,91.43
2018-03-26T19:13:16.210Z,96.67
2018-03-26T19:15:42.565Z,65.10
2018-03-26T19:18:08.735Z,53.67
2018-03-26T19:20:35.753Z,42.63
2018-03-26T19:23:02.002Z,73.60
2018-03-26T19:25:29.003Z,63.03
2018-03-26T19:27:55.451Z,58.80
2018-03-26T19:30:23.256Z,75.07
2018-03-26T19:32:49.493Z,61.43
2018-03-26T19:35:15.705Z,52.23
2018-03-26T19:37:42.687Z,54.53
2018-03-26T19:40:08.929Z,36.57
2018-03-26T19:42:35.078Z,30.00
2018-03-26T19:45:01.278Z,37.37
2018-03-26T19:47:27.541Z,31.80
2018-03-26T19:49:53.713Z,26.70
2018-03-26T19:52:19.946Z,26.33
2018-03-26T19:54:46.272Z,27.77
2018-03-26T19:57:12.432Z,29.30
2018-03-26T19:59:40.124Z,26.83
2018-03-26T20:02:07.127Z,36.33
2018-03-26T20:04:33.304Z,30.97
2018-03-26T20:06:59.491Z,31.53
2018-03-26T20:09:25.673Z,27.10
2018-03-26T20:11:51.911Z,28.30
2018-03-26T20:14:18.147Z,28.33
2018-03-26T20:16:44.423Z,27.43
2018-03-26T20:19:11.477Z,27.03
2018-03-26T20:21:38.416Z,27.67
2018-03-26T20:24:05.472Z,24.13
2018-03-26T20:26:31.670Z,28.40
2018-03-26T20:28:58.615Z,29.30
2018-03-26T20:31:24.791Z,26.57
2018-03-26T20:33:51.069Z,27.97
2018-03-26T20:36:17.344Z,29.63
2018-03-26T20:38:43.506Z,30.17
2018-03-26T20:41:09.730Z,27.00
2018-03-26T20:43:37.415Z,29.10
2018-03-26T20:46:04.336Z,31.40
2018-03-26T20:48:30.642Z,26.03
2018-03-26T20:50:56.893Z,25.90
2018-03-26T20:53:23.232Z,31.93
2018-03-26T20:55:50.915Z,31.17
2018-03-26T20:58:17.945Z,28.37
2018-03-26T21:00:44.174Z,24.87
2018-03-26T21:03:10.357Z,36.23
2018-03-26T21:05:36.549Z,31.53
2018-03-26T21:08:02.728Z,32.07
2018-03-26T21:10:28.960Z,29.17
2018-03-26T21:12:55.941Z,30.80
2018-03-26T21:15:22.197Z,31.57
2018-03-26T21:17:48.430Z,26.30
2018-03-26T21:20:14.571Z,36.60
2018-03-26T21:22:40.775Z,29.97
2018-03-26T21:25:06.949Z,25.20
2018-03-26T21:27:33.123Z,24.30
2018-03-26T21:29:59.231Z,28.23
2018-03-26T21:32:25.432Z,29.33
2018-03-26T21:34:53.464Z,48.27
2018-03-26T21:37:19.841Z,59.17
2018-03-26T21:39:46.985Z,88.10
2018-03-26T21:42:13.382Z,58.90
2018-03-26T21:44:39.636Z,100.53
2018-03-26T21:47:05.944Z,93.97
2018-03-26T21:49:32.101Z,92.13
2018-03-26T21:51:59.021Z,87.17
2018-03-26T21:54:25.956Z,60.57
2018-03-26T21:56:54.600Z,72.00
2018-03-26T21:59:20.886Z,84.00
2018-03-26T22:01:48.010Z,81.57
2018-03-26T22:04:14.545Z,72.83
2018-03-26T22:06:40.719Z,72.33
2018-03-26T22:09:06.939Z,63.70
2018-03-26T22:11:33.206Z,56.47
2018-03-26T22:13:59.501Z,54.87
2018-03-26T22:16:25.702Z,64.70
2018-03-26T22:18:52.722Z,68.13
2018-03-26T22:21:18.991Z,89.87
2018-03-26T22:23:45.278Z,76.07
2018-03-26T22:26:11.640Z,69.13
2018-03-26T22:28:38.626Z,62.37
2018-03-26T22:31:04.827Z,63.23
2018-03-26T22:33:31.144Z,59.70
2018-03-26T22:35:57.367Z,74.03
2018-03-26T22:38:24.362Z,98.17
2018-03-26T22:40:50.536Z,80.40
2018-03-26T22:43:17.557Z,98.53
2018-03-26T22:45:43.783Z,129.03
2018-03-26T22:48:09.972Z,129.67
2018-03-26T22:50:36.197Z,94.60
2018-03-26T22:53:02.383Z,100.43
2018-03-26T22:55:29.289Z,100.30
2018-03-26T22:57:55.492Z,71.67
2018-03-26T23:00:21.626Z,58.07
2018-03-26T23:02:47.852Z,51.60
2018-03-26T23:05:14.014Z,54.80
2018-03-26T23:07:41.859Z,47.37
2018-03-26T23:10:08.101Z,186.77
2018-03-26T23:12:34.241Z,155.73
2018-03-26T23:15:01.266Z,98.73
2018-03-26T23:17:28.342Z,50.70
2018-03-26T23:19:55.301Z,56.03
2018-03-26T23:22:33.835Z,72.40
2018-03-26T23:25:00.028Z,77.87
2018-03-26T23:27:26.935Z,67.63
2018-03-26T23:29:53.220Z,59.37
2018-03-26T23:32:19.449Z,57.30
2018-03-26T23:34:45.717Z,52.63
2018-03-26T23:37:11.909Z,28.33
2018-03-26T23:39:39.088Z,36.83
2018-03-26T23:42:05.232Z,31.73
2018-03-26T23:44:31.480Z,36.80
2018-03-26T23:46:58.630Z,40.53
2018-03-26T23:49:25.753Z,40.67
2018-03-26T23:51:52.295Z,32.33
2018-03-26T23:54:18.553Z,35.03
2018-03-26T23:56:45.450Z,26.30
2018-03-26T23:59:11.793Z,15.60
